createdAt,value
2017-05-04T00:02:20.431Z,32.34
2017-05-04T00:04:48.747Z,33.68
2017-05-04T00:07:17.049Z,34.20
2017-05-04T00:09:45.387Z,35.28
2017-05-04T00:12:13.682Z,32.44
2017-05-04T00:14:41.979Z,26.76
2017-05-04T00:17:10.299Z,30.56
2017-05-04T00:19:39.331Z,24.36
2017-05-04T00:22:07.623Z,32.02
2017-05-04T00:24:35.968Z,30.16
2017-05-04T00:27:04.267Z,23.80
2017-05-04T00:29:32.572Z,18.68
2017-05-04T00:32:00.899Z,29.48
2017-05-04T00:34:29.196Z,30.46
2017-05-04T00:36:57.491Z,28.38
2017-05-04T00:39:25.815Z,24.04
2017-05-04T00:41:54.856Z,20.42
2017-05-04T00:44:23.150Z,21.40
2017-05-04T00:46:51.484Z,24.18
2017-05-04T00:49:19.783Z,22.06
2017-05-04T00:51:48.079Z,16.38
2017-05-04T00:54:16.407Z,17.32
2017-05-04T00:56:44.703Z,19.12
2017-05-04T00:59:13.001Z,17.20
2017-05-04T01:01:41.338Z,22.62
2017-05-04T01:04:09.638Z,25.82
2017-05-04T01:06:37.937Z,17.70
2017-05-04T01:09:06.273Z,19.44
2017-05-04T01:11:34.575Z,16.30
2017-05-04T01:14:02.872Z,26.10
2017-05-04T01:16:31.201Z,18.58
2017-05-04T01:18:59.510Z,15.30
2017-05-04T01:21:27.807Z,17.06
2017-05-04T01:23:56.135Z,14.56
2017-05-04T01:26:24.430Z,21.68
2017-05-04T01:28:52.732Z,15.48
2017-05-04T01:31:21.055Z,12.16
2017-05-04T01:33:50.096Z,11.36
2017-05-04T01:36:18.396Z,11.18
2017-05-04T01:38:46.723Z,14.98
2017-05-04T01:41:15.583Z,11.14
2017-05-04T01:43:43.890Z,15.22
2017-05-04T01:46:12.212Z,15.22
2017-05-04T01:48:40.516Z,12.22
2017-05-04T01:51:08.815Z,11.04
2017-05-04T01:53:37.883Z,10.00
2017-05-04T01:56:06.184Z,14.00
2017-05-04T01:58:35.224Z,11.82
2017-05-04T02:01:03.558Z,13.10
2017-05-04T02:03:32.597Z,10.32
2017-05-04T02:06:00.896Z,21.98
2017-05-04T02:08:29.231Z,19.80
2017-05-04T02:10:57.531Z,16.46
2017-05-04T02:13:25.827Z,12.78
2017-05-04T02:15:54.160Z,8.58
2017-05-04T02:18:22.454Z,8.36
2017-05-04T02:20:50.750Z,15.80
2017-05-04T02:23:19.092Z,18.60
2017-05-04T02:25:47.391Z,16.28
2017-05-04T02:28:15.687Z,16.64
2017-05-04T02:30:44.028Z,19.28
2017-05-04T02:33:12.330Z,17.90
2017-05-04T02:35:40.626Z,13.42
2017-05-04T02:38:08.954Z,13.84
2017-05-04T02:40:37.248Z,11.94
2017-05-04T02:43:05.548Z,14.24
2017-05-04T02:45:33.882Z,14.08
2017-05-04T02:48:02.180Z,10.28
2017-05-04T02:50:30.476Z,8.80
2017-05-04T02:52:58.808Z,15.92
2017-05-04T02:55:27.846Z,15.02
2017-05-04T02:57:56.142Z,10.72
2017-05-04T03:00:24.462Z,12.14
2017-05-04T03:02:52.760Z,11.14
2017-05-04T03:05:21.060Z,12.84
2017-05-04T03:07:49.392Z,15.62
2017-05-04T03:10:18.427Z,11.30
2017-05-04T03:12:46.723Z,10.04
2017-05-04T03:15:15.058Z,7.80
2017-05-04T03:17:43.361Z,10.14
2017-05-04T03:20:11.660Z,17.76
2017-05-04T03:22:39.979Z,14.16
2017-05-04T03:25:08.275Z,18.92
2017-05-04T03:27:36.576Z,21.20
2017-05-04T03:30:04.911Z,12.54
2017-05-04T03:32:33.220Z,10.46
2017-05-04T03:35:01.514Z,8.20
2017-05-04T03:37:29.834Z,13.44
2017-05-04T03:39:58.875Z,28.50
2017-05-04T03:42:27.175Z,19.74
2017-05-04T03:44:55.517Z,12.06
2017-05-04T03:47:23.811Z,11.44
2017-05-04T03:49:52.108Z,13.00
2017-05-04T03:52:20.439Z,12.44
2017-05-04T03:54:48.737Z,15.70
2017-05-04T03:57:17.041Z,15.94
2017-05-04T03:59:45.362Z,20.46
2017-05-04T04:02:13.660Z,11.56
2017-05-04T04:04:41.947Z,9.38
2017-05-04T04:07:10.278Z,13.88
2017-05-04T04:09:38.586Z,22.16
2017-05-04T04:12:06.883Z,18.36
2017-05-04T04:14:35.216Z,27.30
2017-05-04T04:17:04.256Z,23.28
2017-05-04T04:19:32.557Z,25.52
2017-05-04T04:22:00.880Z,27.88
2017-05-04T04:24:29.176Z,17.22
2017-05-04T04:26:57.471Z,25.32
2017-05-04T04:29:25.791Z,19.54
2017-05-04T04:31:54.830Z,24.12
2017-05-04T04:34:23.127Z,15.64
2017-05-04T04:36:51.463Z,21.10
2017-05-04T04:39:19.762Z,19.88
2017-05-04T04:41:48.063Z,14.20
2017-05-04T04:44:16.375Z,23.16
2017-05-04T04:46:45.415Z,24.84
2017-05-04T04:49:13.714Z,22.54
2017-05-04T04:51:42.044Z,15.54
2017-05-04T04:54:10.340Z,19.06
2017-05-04T04:56:38.636Z,18.88
2017-05-04T04:59:06.968Z,20.84
2017-05-04T05:01:36.004Z,22.90
2017-05-04T05:04:04.303Z,21.44
2017-05-04T05:06:32.635Z,20.26
2017-05-04T05:09:00.939Z,21.74
2017-05-04T05:11:29.239Z,23.58
2017-05-04T05:13:57.585Z,29.32
2017-05-04T05:16:25.883Z,19.86
2017-05-04T05:18:54.183Z,18.04
2017-05-04T05:21:22.515Z,16.32
2017-05-04T05:23:51.964Z,14.84
2017-05-04T05:26:20.258Z,15.48
2017-05-04T05:28:49.321Z,12.34
2017-05-04T05:31:17.621Z,26.04
2017-05-04T05:33:45.922Z,19.12
2017-05-04T05:36:14.250Z,27.20
2017-05-04T05:38:42.556Z,29.00
2017-05-04T05:41:11.674Z,22.70
2017-05-04T05:43:40.034Z,20.76
2017-05-04T05:46:09.075Z,22.00
2017-05-04T05:48:37.384Z,24.10
2017-05-04T05:51:05.726Z,23.62
2017-05-04T05:53:34.031Z,32.20
2017-05-04T05:56:02.338Z,34.26
2017-05-04T05:58:31.425Z,34.32
2017-05-04T06:00:59.735Z,32.40
2017-05-04T06:03:28.041Z,29.24
2017-05-04T06:05:56.384Z,27.92
2017-05-04T06:08:24.684Z,36.08
2017-05-04T06:10:52.989Z,32.72
2017-05-04T06:13:21.323Z,29.48
2017-05-04T06:15:49.627Z,30.32
2017-05-04T06:18:17.931Z,31.56
2017-05-04T06:20:46.259Z,34.32
2017-05-04T06:23:14.562Z,31.86
2017-05-04T06:25:42.862Z,33.54
2017-05-04T06:28:11.203Z,31.24
2017-05-04T06:30:39.504Z,33.94
2017-05-04T06:33:07.807Z,32.66
2017-05-04T06:35:36.139Z,31.60
2017-05-04T06:38:04.444Z,33.84
2017-05-04T06:40:32.742Z,34.78
2017-05-04T06:43:01.067Z,32.48
2017-05-04T06:45:29.365Z,29.06
2017-05-04T06:47:57.672Z,31.86
2017-05-04T06:50:25.999Z,32.30
2017-05-04T06:52:54.304Z,33.70
2017-05-04T06:55:22.607Z,33.00
2017-05-04T06:57:50.949Z,29.26
2017-05-04T07:00:19.251Z,32.44
2017-05-04T07:02:47.552Z,32.10
2017-05-04T07:05:15.888Z,31.78
2017-05-04T07:07:44.186Z,32.38
2017-05-04T07:10:13.226Z,30.04
2017-05-04T07:12:41.563Z,30.28
2017-05-04T07:15:09.864Z,29.54
2017-05-04T07:17:38.896Z,30.12
2017-05-04T07:20:07.233Z,29.02
2017-05-04T07:22:36.320Z,31.26
2017-05-04T07:25:04.615Z,26.90
2017-05-04T07:27:33.679Z,28.60
2017-05-04T07:30:01.979Z,28.12
2017-05-04T07:32:30.279Z,27.76
2017-05-04T07:34:58.614Z,30.86
2017-05-04T07:37:26.910Z,30.00
2017-05-04T07:39:55.211Z,27.32
2017-05-04T07:42:23.543Z,27.72
2017-05-04T07:44:51.839Z,28.10
2017-05-04T07:47:20.141Z,27.56
2017-05-04T07:49:49.203Z,27.82
2017-05-04T07:52:17.508Z,29.10
2017-05-04T07:54:45.811Z,28.66
2017-05-04T07:57:14.150Z,28.18
2017-05-04T07:59:42.450Z,27.94
2017-05-04T08:02:10.747Z,28.02
2017-05-04T08:04:39.076Z,25.92
2017-05-04T08:07:07.371Z,27.32
2017-05-04T08:09:36.410Z,27.00
2017-05-04T08:12:04.743Z,27.88
2017-05-04T08:14:33.779Z,27.10
2017-05-04T08:17:02.081Z,23.82
2017-05-04T08:19:30.404Z,26.30
2017-05-04T08:21:58.711Z,25.82
2017-05-04T08:24:27.007Z,25.44
2017-05-04T08:26:55.340Z,24.04
2017-05-04T08:29:23.643Z,27.80
2017-05-04T08:31:51.935Z,28.76
2017-05-04T08:34:20.262Z,26.74
2017-05-04T08:36:49.303Z,25.20
2017-05-04T08:39:17.600Z,27.00
2017-05-04T08:41:45.939Z,26.36
2017-05-04T08:44:14.245Z,24.40
2017-05-04T08:46:42.545Z,23.10
2017-05-04T08:49:10.867Z,23.92
2017-05-04T08:51:39.169Z,23.64
2017-05-04T08:54:07.467Z,23.64
2017-05-04T08:56:35.811Z,27.20
2017-05-04T08:59:04.111Z,24.44
2017-05-04T09:01:32.409Z,22.72
2017-05-04T09:04:00.732Z,23.50
2017-05-04T09:06:29.036Z,24.56
2017-05-04T09:08:57.331Z,22.10
2017-05-04T09:11:25.662Z,23.60
2017-05-04T09:13:53.963Z,21.00
2017-05-04T09:16:22.268Z,22.38
2017-05-04T09:18:50.592Z,22.38
2017-05-04T09:21:18.892Z,22.86
2017-05-04T09:23:47.190Z,20.04
2017-05-04T09:26:15.519Z,21.56
2017-05-04T09:28:43.827Z,22.30
2017-05-04T09:31:12.126Z,23.08
2017-05-04T09:33:40.463Z,22.84
2017-05-04T09:36:08.762Z,23.84
2017-05-04T09:38:37.064Z,24.60
2017-05-04T09:41:05.404Z,23.56
2017-05-04T09:43:33.710Z,21.70
2017-05-04T09:46:02.008Z,24.08
2017-05-04T09:48:30.333Z,24.38
2017-05-04T09:50:58.627Z,24.82
2017-05-04T09:53:26.923Z,25.74
2017-05-04T09:55:55.275Z,27.30
2017-05-04T09:58:23.572Z,23.42
2017-05-04T10:00:51.869Z,24.94
2017-05-04T10:03:20.200Z,24.50
2017-05-04T10:05:48.504Z,23.56
2017-05-04T10:08:16.803Z,24.68
2017-05-04T10:10:45.139Z,24.06
2017-05-04T10:13:13.437Z,24.02
2017-05-04T10:15:41.739Z,25.06
2017-05-04T10:18:10.071Z,24.02
2017-05-04T10:20:38.366Z,23.78
2017-05-04T10:23:06.671Z,26.04
2017-05-04T10:25:34.993Z,25.84
2017-05-04T10:28:03.302Z,23.66
2017-05-04T10:30:31.607Z,27.38
2017-05-04T10:32:59.944Z,22.00
2017-05-04T10:35:28.248Z,26.08
2017-05-04T10:37:56.539Z,27.70
2017-05-04T10:40:24.866Z,26.50
2017-05-04T10:42:53.907Z,25.28
2017-05-04T10:45:22.207Z,24.62
2017-05-04T10:47:50.531Z,26.60
2017-05-04T10:50:18.827Z,27.70
2017-05-04T10:52:47.122Z,26.20
2017-05-04T10:55:15.457Z,28.36
2017-05-04T10:57:43.756Z,24.04
2017-05-04T11:00:12.059Z,24.06
2017-05-04T11:02:40.396Z,26.50
2017-05-04T11:05:08.695Z,24.36
2017-05-04T11:07:36.996Z,25.20
2017-05-04T11:10:05.320Z,24.76
2017-05-04T11:12:33.615Z,23.50
2017-05-04T11:15:01.912Z,24.26
2017-05-04T11:17:30.248Z,22.42
2017-05-04T11:19:59.285Z,23.74
2017-05-04T11:22:27.589Z,21.64
2017-05-04T11:24:55.923Z,22.94
2017-05-04T11:27:24.959Z,23.18
2017-05-04T11:29:53.260Z,22.66
2017-05-04T11:32:21.579Z,23.02
2017-05-04T11:34:49.876Z,23.34
2017-05-04T11:37:18.171Z,20.10
2017-05-04T11:39:46.499Z,20.62
2017-05-04T11:42:15.540Z,20.76
2017-05-04T11:44:43.840Z,20.28
2017-05-04T11:47:12.180Z,20.50
2017-05-04T11:49:40.484Z,19.02
2017-05-04T11:52:08.783Z,20.72
2017-05-04T11:54:37.104Z,20.48
2017-05-04T11:57:05.398Z,19.50
2017-05-04T11:59:33.692Z,18.98
2017-05-04T12:02:02.034Z,18.90
2017-05-04T12:04:30.339Z,17.32
2017-05-04T12:06:58.636Z,17.32
2017-05-04T12:09:26.978Z,17.20
2017-05-04T12:11:55.279Z,17.12
2017-05-04T12:14:23.579Z,18.56
2017-05-04T12:16:52.216Z,19.34
2017-05-04T12:19:20.514Z,17.48
2017-05-04T12:21:48.819Z,17.76
2017-05-04T12:24:17.154Z,16.32
2017-05-04T12:26:45.447Z,16.74
2017-05-04T12:29:13.748Z,15.84
2017-05-04T12:31:42.071Z,14.68
2017-05-04T12:34:10.366Z,16.46
2017-05-04T12:36:38.665Z,14.96
2017-05-04T12:39:06.991Z,15.62
2017-05-04T12:41:36.026Z,17.06
2017-05-04T12:44:04.336Z,14.80
2017-05-04T12:46:32.666Z,15.06
2017-05-04T12:49:01.709Z,13.74
2017-05-04T12:51:30.003Z,14.26
2017-05-04T12:53:58.327Z,14.78
2017-05-04T12:56:26.633Z,12.66
2017-05-04T12:58:54.931Z,13.06
2017-05-04T13:01:23.271Z,13.10
2017-05-04T13:03:51.567Z,13.40
2017-05-04T13:06:20.607Z,14.94
2017-05-04T13:08:48.943Z,15.26
2017-05-04T13:11:17.983Z,15.54
2017-05-04T13:13:46.279Z,13.94
2017-05-04T13:16:14.605Z,15.56
2017-05-04T13:18:43.646Z,16.92
2017-05-04T13:21:11.946Z,14.92
2017-05-04T13:23:40.283Z,16.72
2017-05-04T13:26:08.584Z,16.20
2017-05-04T13:28:37.292Z,15.26
2017-05-04T13:31:05.624Z,16.96
2017-05-04T13:33:33.927Z,17.74
2017-05-04T13:36:02.229Z,16.24
2017-05-04T13:38:30.555Z,15.76
2017-05-04T13:40:58.847Z,17.62
2017-05-04T13:43:27.143Z,17.08
2017-05-04T13:45:55.466Z,17.88
2017-05-04T13:48:24.508Z,14.84
2017-05-04T13:50:52.807Z,14.74
2017-05-04T13:53:21.142Z,12.82
2017-05-04T13:55:49.434Z,14.40
2017-05-04T13:58:17.739Z,14.38
2017-05-04T14:00:46.118Z,13.42
2017-05-04T14:03:14.416Z,15.80
2017-05-04T14:05:43.455Z,17.34
2017-05-04T14:08:11.788Z,15.54
2017-05-04T14:10:40.088Z,15.26
2017-05-04T14:13:08.403Z,15.42
2017-05-04T14:15:37.471Z,16.06
2017-05-04T14:18:05.771Z,15.10
2017-05-04T14:20:34.082Z,16.30
2017-05-04T14:23:02.423Z,14.86
2017-05-04T14:25:30.731Z,15.62
2017-05-04T14:27:59.028Z,15.04
2017-05-04T14:30:27.351Z,16.08
2017-05-04T14:32:55.648Z,12.92
2017-05-04T14:35:24.683Z,16.58
2017-05-04T14:37:53.012Z,16.26
2017-05-04T14:40:22.056Z,15.94
2017-05-04T14:42:50.355Z,16.50
2017-05-04T14:45:18.675Z,17.34
2017-05-04T14:47:46.983Z,15.50
2017-05-04T14:50:15.283Z,14.08
2017-05-04T14:52:43.606Z,16.76
2017-05-04T14:55:11.899Z,15.36
2017-05-04T14:57:40.938Z,15.08
2017-05-04T15:00:09.260Z,15.74
2017-05-04T15:02:37.558Z,16.32
2017-05-04T15:05:06.599Z,15.36
2017-05-04T15:07:34.924Z,14.80
2017-05-04T15:10:03.971Z,15.32
2017-05-04T15:12:32.266Z,15.60
2017-05-04T15:15:00.605Z,15.32
2017-05-04T15:17:28.908Z,14.86
2017-05-04T15:19:57.202Z,13.88
2017-05-04T15:22:26.270Z,16.06
2017-05-04T15:24:54.568Z,14.32
2017-05-04T15:27:22.879Z,14.98
2017-05-04T15:29:51.202Z,13.08
2017-05-04T15:32:19.509Z,13.72
2017-05-04T15:34:48.553Z,13.06
2017-05-04T15:37:16.871Z,13.54
2017-05-04T15:39:45.163Z,12.90
2017-05-04T15:42:14.216Z,13.78
2017-05-04T15:44:42.552Z,13.94
2017-05-04T15:47:10.847Z,13.52
2017-05-04T15:49:39.144Z,12.22
2017-05-04T15:52:07.466Z,12.12
2017-05-04T15:54:36.511Z,12.12
2017-05-04T15:57:04.806Z,14.50
2017-05-04T15:59:33.131Z,14.14
2017-05-04T16:02:02.171Z,12.62
2017-05-04T16:04:30.475Z,12.68
2017-05-04T16:06:58.808Z,13.68
2017-05-04T16:09:27.107Z,11.82
2017-05-04T16:11:55.406Z,11.68
2017-05-04T16:14:23.735Z,13.06
2017-05-04T16:16:52.032Z,12.82
2017-05-04T16:19:20.338Z,11.92
2017-05-04T16:21:48.663Z,13.02
2017-05-04T16:24:16.958Z,12.84
2017-05-04T16:26:45.255Z,11.72
2017-05-04T16:29:13.595Z,13.12
2017-05-04T16:31:41.890Z,13.34
2017-05-04T16:34:10.187Z,13.16
2017-05-04T16:36:38.502Z,11.88
2017-05-04T16:39:06.824Z,11.86
2017-05-04T16:41:35.167Z,12.54
2017-05-04T16:44:04.209Z,11.50
2017-05-04T16:46:32.510Z,11.98
2017-05-04T16:49:00.832Z,10.40
2017-05-04T16:51:29.126Z,11.40
2017-05-04T16:53:57.444Z,12.22
2017-05-04T16:56:25.749Z,11.84
2017-05-04T16:58:54.792Z,11.16
2017-05-04T17:01:23.111Z,11.62
2017-05-04T17:03:52.155Z,11.82
2017-05-04T17:06:20.494Z,13.98
2017-05-04T17:08:49.531Z,12.12
2017-05-04T17:11:17.824Z,10.56
2017-05-04T17:13:46.144Z,13.18
2017-05-04T17:16:15.187Z,11.60
2017-05-04T17:18:43.507Z,10.82
2017-05-04T17:21:12.559Z,12.02
2017-05-04T17:23:40.859Z,11.48
2017-05-04T17:26:09.535Z,11.80
2017-05-04T17:28:37.837Z,11.14
2017-05-04T17:31:06.903Z,10.10
2017-05-04T17:33:35.221Z,9.16
2017-05-04T17:36:04.259Z,9.24
2017-05-04T17:38:32.571Z,8.48
2017-05-04T17:41:00.871Z,10.06
2017-05-04T17:43:29.943Z,9.46
2017-05-04T17:45:58.252Z,8.80
2017-05-04T17:48:27.292Z,8.10
2017-05-04T17:50:55.610Z,8.46
2017-05-04T17:53:24.660Z,7.80
2017-05-04T17:55:52.964Z,7.32
2017-05-04T17:58:21.263Z,7.56
2017-05-04T18:00:50.303Z,7.32
2017-05-04T18:03:18.603Z,8.24
2017-05-04T18:05:46.907Z,7.52
2017-05-04T18:08:15.943Z,7.94
2017-05-04T18:10:44.236Z,7.96
2017-05-04T18:13:12.534Z,6.90
2017-05-04T18:15:40.838Z,9.18
2017-05-04T18:18:09.878Z,6.70
2017-05-04T18:20:38.192Z,7.82
2017-05-04T18:23:06.491Z,7.72
2017-05-04T18:25:35.571Z,6.04
2017-05-04T18:28:03.862Z,6.78
2017-05-04T18:30:33.201Z,7.00
2017-05-04T18:33:01.558Z,7.32
2017-05-04T18:35:29.852Z,6.50
2017-05-04T18:37:58.835Z,6.02
2017-05-04T18:40:27.208Z,5.74
2017-05-04T18:42:56.246Z,6.84
2017-05-04T18:45:24.543Z,6.42
2017-05-04T18:47:52.870Z,7.54
2017-05-04T18:50:21.908Z,5.88
2017-05-04T18:52:50.203Z,5.38
2017-05-04T18:55:19.289Z,6.20
2017-05-04T18:57:47.977Z,5.58
2017-05-04T19:00:16.968Z,4.44
2017-05-04T19:02:47.577Z,5.26
2017-05-04T19:05:17.788Z,4.50
2017-05-04T19:07:46.116Z,5.86
2017-05-04T19:10:14.412Z,5.64
2017-05-04T19:12:43.451Z,5.02
2017-05-04T19:15:11.751Z,5.42
2017-05-04T19:17:40.049Z,4.82
2017-05-04T19:20:08.347Z,4.16
2017-05-04T19:22:37.387Z,4.18
2017-05-04T19:25:05.691Z,5.32
2017-05-04T19:27:33.987Z,4.94
2017-05-04T19:30:03.027Z,4.84
2017-05-04T19:32:31.324Z,4.82
2017-05-04T19:34:59.655Z,4.76
2017-05-04T19:37:28.691Z,4.78
2017-05-04T19:39:56.991Z,5.76
2017-05-04T19:42:25.293Z,4.54
2017-05-04T19:44:54.324Z,5.12
2017-05-04T19:47:22.627Z,5.24
2017-05-04T19:49:50.923Z,4.80
2017-05-04T19:52:19.215Z,6.06
2017-05-04T19:54:48.274Z,5.40
2017-05-04T19:57:16.599Z,5.56
2017-05-04T19:59:45.635Z,4.30
2017-05-04T20:02:13.938Z,4.18
2017-05-04T20:04:42.237Z,6.12
2017-05-04T20:07:10.570Z,6.08
2017-05-04T20:09:38.863Z,6.26
2017-05-04T20:12:07.167Z,5.30
2017-05-04T20:14:35.487Z,4.78
2017-05-04T20:17:03.787Z,6.36
2017-05-04T20:19:32.082Z,5.86
2017-05-04T20:22:00.384Z,5.62
2017-05-04T20:24:28.678Z,6.02
2017-05-04T20:26:57.722Z,5.40
2017-05-04T20:29:26.031Z,4.46
2017-05-04T20:31:54.327Z,6.84
2017-05-04T20:34:22.626Z,6.30
2017-05-04T20:36:50.922Z,4.94
2017-05-04T20:39:19.242Z,5.28
2017-05-04T20:41:47.530Z,6.48
2017-05-04T20:44:15.822Z,5.22
2017-05-04T20:46:44.282Z,5.36
2017-05-04T20:49:12.570Z,5.42
2017-05-04T20:51:40.866Z,5.70
2017-05-04T20:54:09.184Z,5.58
2017-05-04T20:56:38.219Z,5.36
2017-05-04T20:59:06.516Z,4.52
2017-05-04T21:01:34.839Z,4.80
2017-05-04T21:04:03.872Z,4.54
2017-05-04T21:06:33.090Z,4.96
2017-05-04T21:09:01.447Z,4.56
2017-05-04T21:11:29.736Z,3.58
2017-05-04T21:13:58.028Z,4.48
2017-05-04T21:16:26.354Z,4.68
2017-05-04T21:18:54.646Z,4.06
2017-05-04T21:21:22.939Z,3.92
2017-05-04T21:23:51.265Z,4.20
2017-05-04T21:26:20.299Z,3.46
2017-05-04T21:28:48.591Z,3.64
2017-05-04T21:31:17.765Z,3.50
2017-05-04T21:33:46.055Z,3.18
2017-05-04T21:36:14.349Z,3.74
2017-05-04T21:38:42.663Z,2.40
2017-05-04T21:41:10.955Z,2.96
2017-05-04T21:43:39.981Z,3.20
2017-05-04T21:46:08.308Z,3.08
2017-05-04T21:48:36.601Z,3.44
2017-05-04T21:51:05.632Z,2.92
2017-05-04T21:53:33.943Z,2.42
2017-05-04T21:56:02.238Z,2.84
2017-05-04T21:58:34.884Z,3.00
2017-05-04T22:01:03.166Z,2.96
2017-05-04T22:03:31.456Z,2.82
2017-05-04T22:05:59.773Z,2.24
2017-05-04T22:08:28.799Z,3.12
2017-05-04T22:10:57.090Z,2.70
2017-05-04T22:13:25.415Z,2.00
2017-05-04T22:15:54.445Z,2.88
2017-05-04T22:18:22.734Z,2.14
2017-05-04T22:20:51.063Z,2.66
2017-05-04T22:23:20.086Z,2.78
2017-05-04T22:25:48.367Z,3.00
2017-05-04T22:28:16.690Z,3.18
2017-05-04T22:30:44.984Z,3.14
2017-05-04T22:33:14.015Z,3.00
2017-05-04T22:35:42.332Z,2.40
2017-05-04T22:38:10.622Z,2.18
2017-05-04T22:40:38.910Z,2.30
2017-05-04T22:43:07.991Z,2.40
2017-05-04T22:45:36.278Z,2.64
2017-05-04T22:48:04.568Z,2.86
2017-05-04T22:50:33.639Z,2.80
2017-05-04T22:53:01.927Z,2.60
2017-05-04T22:55:30.221Z,2.16
2017-05-04T22:57:59.279Z,2.54
2017-05-04T23:00:27.570Z,2.54
2017-05-04T23:02:55.859Z,2.40
2017-05-04T23:05:24.920Z,2.10
2017-05-04T23:07:53.219Z,1.76
2017-05-04T23:10:21.509Z,1.68
2017-05-04T23:12:49.831Z,1.84
2017-05-04T23:15:18.123Z,2.00
2017-05-04T23:17:46.418Z,1.40
2017-05-04T23:20:14.736Z,2.52
2017-05-04T23:22:43.027Z,1.86
2017-05-04T23:25:11.318Z,2.10
2017-05-04T23:27:39.634Z,2.42
2017-05-04T23:30:07.926Z,2.72
2017-05-04T23:32:36.214Z,2.64
2017-05-04T23:35:05.268Z,2.66
2017-05-04T23:37:33.556Z,2.08
2017-05-04T23:40:01.848Z,2.76
2017-05-04T23:42:30.171Z,3.10
2017-05-04T23:44:58.454Z,2.12
2017-05-04T23:47:26.746Z,3.22
2017-05-04T23:49:55.066Z,1.72
2017-05-04T23:52:24.096Z,1.96
2017-05-04T23:54:52.382Z,2.16
2017-05-04T23:57:20.701Z,2.80
2017-05-04T23:59:48.997Z,2.44
